TimePST,TemperatureF,Dew PointF,Humidity,Sea Level PressureIn,VisibilityMPH,Wind Direction,Wind SpeedMPH,Gust SpeedMPH,PrecipitationIn,Events,Conditions,WindDirDegrees,DateUTC
12:53 AM,41.0,35.1,79,30.20,10.0,Calm,Calm,-,N/A,,Clear,0,2013-02-22 08:53:00
1:53 AM,39.9,34.0,79,30.19,10.0,Calm,Calm,-,N/A,,Clear,0,2013-02-22 09:53:00
2:53 AM,37.0,32.0,82,30.19,10.0,SE,4.6,-,N/A,,Clear,130,2013-02-22 10:53:00
3:53 AM,39.0,33.1,79,30.19,10.0,Calm,Calm,-,N/A,,Clear,0,2013-02-22 11:53:00
4:53 AM,39.0,34.0,82,30.21,10.0,Calm,Calm,-,N/A,,Clear,0,2013-02-22 12:53:00
5:53 AM,39.0,33.1,79,30.22,10.0,Calm,Calm,-,N/A,,Clear,0,2013-02-22 13:53:00
6:53 AM,37.0,33.1,86,30.23,10.0,SE,4.6,-,N/A,,Clear,130,2013-02-22 14:53:00
7:53 AM,41.0,35.1,79,30.26,10.0,Calm,Calm,-,N/A,,Clear,0,2013-02-22 15:53:00
8:53 AM,45.0,36.0,71,30.26,10.0,Calm,Calm,-,N/A,,Clear,0,2013-02-22 16:53:00
9:53 AM,50.0,36.0,59,30.25,10.0,SE,3.5,-,N/A,,Clear,140,2013-02-22 17:53:00
10:53 AM,55.0,37.0,51,30.26,10.0,WNW,5.8,-,N/A,,Clear,300,2013-02-22 18:53:00
11:53 AM,57.9,39.0,49,30.25,10.0,WNW,6.9,-,N/A,,Clear,300,2013-02-22 19:53:00
12:53 PM,61.0,35.1,38,30.23,10.0,NW,8.1,-,N/A,,Clear,310,2013-02-22 20:53:00
1:53 PM,60.1,35.1,39,30.21,10.0,NW,10.4,-,N/A,,Clear,310,2013-02-22 21:53:00
2:53 PM,61.0,36.0,39,30.20,10.0,WNW,6.9,-,N/A,,Clear,300,2013-02-22 22:53:00
3:53 PM,61.0,37.9,42,30.20,10.0,WNW,11.5,-,N/A,,Clear,300,2013-02-22 23:53:00
4:53 PM,55.9,42.1,60,30.22,10.0,NW,13.8,-,N/A,,Clear,310,2013-02-23 00:53:00
5:53 PM,53.1,39.9,61,30.22,10.0,NNW,8.1,-,N/A,,Clear,330,2013-02-23 01:53:00
6:53 PM,51.1,42.1,71,30.22,10.0,NW,9.2,-,N/A,,Clear,320,2013-02-23 02:53:00
7:53 PM,50.0,43.0,77,30.25,10.0,NW,9.2,-,N/A,,Clear,310,2013-02-23 03:53:00
8:53 PM,50.0,43.0,77,30.23,10.0,NNE,4.6,-,N/A,,Clear,20,2013-02-23 04:53:00
9:53 PM,48.0,43.0,83,30.26,10.0,WNW,4.6,-,N/A,,Clear,300,2013-02-23 05:53:00
10:53 PM,48.9,43.0,80,30.27,10.0,Calm,Calm,-,N/A,,Overcast,0,2013-02-23 06:53:00
11:53 PM,50.0,43.0,77,30.27,10.0,North,4.6,-,N/A,,Mostly Cloudy,350,2013-02-23 07:53:00